Time;durP1;ratioP1;P1;durP2;ratioP2;P2;SDS_P1;SDS_P2;PMS_P1;PMS_P2;Temp;Humidity;BMP_temperature;BMP_pressure;BME280_temperature;BME280_humidity;BME280_pressure;Samples;Min_cycle;Max_cycle;Signal;HPM_P1;HPM_P2
2024/01/30 00:01:54;;;;;;;15.90;10.80;;;7.90;99.90;;;;;;5093834;28;20157;-54
2024/01/30 00:04:20;;;;;;;15.95;10.13;;;7.90;99.90;;;;;;5092440;28;20180;-54
2024/01/30 00:06:45;;;;;;;18.02;13.55;;;7.90;99.90;;;;;;5093671;28;20526;-54
2024/01/30 00:09:11;;;;;;;16.08;10.95;;;7.90;99.90;;;;;;5093167;28;20661;-53
2024/01/30 00:11:37;;;;;;;18.08;10.80;;;7.90;99.90;;;;;;5094053;28;20166;-54
2024/01/30 00:14:04;;;;;;;19.95;11.73;;;7.80;99.90;;;;;;5093567;28;20215;-54
2024/01/30 00:16:30;;;;;;;18.05;10.30;;;7.80;99.90;;;;;;5093787;28;20173;-54
2024/01/30 00:18:55;;;;;;;22.95;12.40;;;7.80;99.90;;;;;;5093654;28;20629;-54
2024/01/30 00:21:21;;;;;;;18.20;10.05;;;7.80;99.90;;;;;;5093451;28;20173;-54
2024/01/30 00:23:47;;;;;;;18.00;11.18;;;7.80;99.90;;;;;;5092558;28;20162;-51
2024/01/30 00:26:14;;;;;;;21.10;10.82;;;7.80;99.90;;;;;;5093386;28;20244;-53
2024/01/30 00:28:40;;;;;;;14.25;9.82;;;7.80;99.90;;;;;;5093473;28;20367;-53
2024/01/30 00:31:06;;;;;;;14.15;9.48;;;7.80;99.90;;;;;;5093651;28;20567;-52
2024/01/30 00:33:31;;;;;;;17.83;10.27;;;7.80;99.90;;;;;;5093116;28;20170;-53
2024/01/30 00:35:57;;;;;;;21.27;12.52;;;7.80;99.90;;;;;;5093051;28;20319;-53
2024/01/30 00:38:22;;;;;;;14.63;9.85;;;7.80;99.90;;;;;;5093159;28;20165;-52
2024/01/30 00:40:48;;;;;;;21.95;13.82;;;7.80;99.90;;;;;;5093065;28;20165;-54
2024/01/30 00:43:15;;;;;;;19.50;12.25;;;7.70;99.90;;;;;;5092978;28;20169;-54
2024/01/30 00:45:41;;;;;;;21.02;12.85;;;7.70;99.90;;;;;;5093178;28;20169;-54
2024/01/30 00:48:06;;;;;;;25.38;13.35;;;7.80;99.90;;;;;;5093507;28;20227;-54
2024/01/30 00:50:32;;;;;;;16.80;10.73;;;7.70;99.90;;;;;;5092743;28;20215;-53
2024/01/30 00:52:58;;;;;;;17.60;10.90;;;7.70;99.90;;;;;;5091480;28;20568;-54
2024/01/30 00:55:23;;;;;;;12.90;9.98;;;7.70;99.90;;;;;;5091588;28;20172;-54
2024/01/30 00:57:49;;;;;;;20.52;11.48;;;7.70;99.90;;;;;;5092615;28;20248;-53
2024/01/30 01:00:17;;;;;;;19.88;11.80;;;7.70;99.90;;;;;;5092737;28;20176;-53
2024/01/30 01:02:43;;;;;;;15.73;10.35;;;7.70;99.90;;;;;;5092245;28;20179;-54
2024/01/30 01:05:09;;;;;;;22.15;13.25;;;7.70;99.90;;;;;;5092929;28;20252;-54
2024/01/30 01:07:34;;;;;;;24.73;13.63;;;7.70;99.90;;;;;;5093075;28;20167;-54
2024/01/30 01:10:00;;;;;;;18.50;11.38;;;7.70;99.90;;;;;;5092394;28;20564;-53
2024/01/30 01:12:25;;;;;;;21.83;12.25;;;7.70;99.90;;;;;;5092415;28;20169;-54
2024/01/30 01:14:51;;;;;;;24.67;12.35;;;7.70;99.90;;;;;;5092414;28;20170;-53
2024/01/30 01:17:18;;;;;;;18.55;12.45;;;7.70;99.90;;;;;;5092377;28;20161;-53
2024/01/30 01:19:44;;;;;;;19.65;12.23;;;7.70;99.90;;;;;;5092291;28;20220;-53
2024/01/30 01:22:09;;;;;;;27.30;13.90;;;7.70;99.90;;;;;;5092200;28;20246;-53
2024/01/30 01:24:36;;;;;;;22.90;11.18;;;7.70;99.90;;;;;;5092714;28;20169;-51
2024/01/30 01:27:01;;;;;;;64.57;24.67;;;7.70;99.90;;;;;;5090849;28;20233;-52
2024/01/30 01:29:28;;;;;;;24.08;12.63;;;7.70;99.90;;;;;;5092246;28;20703;-52
2024/01/30 01:31:57;;;;;;;36.55;15.75;;;7.70;99.90;;;;;;5092218;28;20260;-52
2024/01/30 01:34:23;;;;;;;29.27;14.50;;;7.70;99.90;;;;;;5091872;28;20189;-52
2024/01/30 01:36:49;;;;;;;36.50;16.13;;;7.60;99.90;;;;;;5092211;28;20169;-54
2024/01/30 01:39:15;;;;;;;37.33;18.38;;;7.60;99.90;;;;;;5091971;28;20646;-53
2024/01/30 01:41:41;;;;;;;28.85;14.60;;;7.60;99.90;;;;;;5091970;28;20176;-53
2024/01/30 01:44:07;;;;;;;29.80;15.48;;;7.60;99.90;;;;;;5092300;28;20628;-53
2024/01/30 01:46:34;;;;;;;20.98;13.13;;;7.60;99.90;;;;;;5091848;28;20211;-54
2024/01/30 01:49:03;;;;;;;21.80;12.13;;;7.60;99.90;;;;;;5091861;28;20165;-54
2024/01/30 01:51:30;;;;;;;20.48;12.80;;;7.60;99.90;;;;;;5092057;28;20644;-54
2024/01/30 01:53:58;;;;;;;20.00;12.00;;;7.60;99.90;;;;;;5091729;28;20183;-54
2024/01/30 01:56:24;;;;;;;31.15;18.77;;;7.60;99.90;;;;;;5091461;28;20227;-54
2024/01/30 01:58:51;;;;;;;27.98;14.15;;;7.60;99.90;;;;;;5091611;28;20249;-54
2024/01/30 02:01:19;;;;;;;21.50;13.80;;;7.60;99.90;;;;;;5091666;28;20173;-54
2024/01/30 02:03:46;;;;;;;16.90;12.68;;;7.50;99.90;;;;;;5091795;28;20610;-54
2024/01/30 02:06:16;;;;;;;18.60;11.95;;;7.50;99.90;;;;;;5091788;28;20173;-53
2024/01/30 02:08:42;;;;;;;18.92;11.95;;;7.50;99.90;;;;;;5091673;28;20166;-53
2024/01/30 02:11:08;;;;;;;23.25;12.45;;;7.50;99.90;;;;;;5091922;28;20201;-54
2024/01/30 02:13:34;;;;;;;21.90;11.77;;;7.40;99.90;;;;;;5091609;28;20162;-54
2024/01/30 02:16:00;;;;;;;16.52;12.35;;;7.50;99.90;;;;;;5091534;28;20593;-53
2024/01/30 02:18:26;;;;;;;20.17;12.38;;;7.40;99.90;;;;;;5091574;28;20176;-54
2024/01/30 02:20:54;;;;;;;17.90;12.23;;;7.50;99.90;;;;;;5091338;28;20169;-54
2024/01/30 02:23:20;;;;;;;15.45;11.52;;;7.40;99.90;;;;;;5091246;28;20169;-53
2024/01/30 02:25:45;;;;;;;17.85;12.15;;;7.50;99.90;;;;;;5091277;28;20175;-54
2024/01/30 02:28:12;;;;;;;16.15;12.15;;;7.40;99.90;;;;;;5091291;28;20248;-54
2024/01/30 02:30:44;;;;;;;20.10;12.40;;;7.40;99.90;;;;;;5091650;28;20288;-54
2024/01/30 02:33:09;;;;;;;17.90;11.93;;;7.40;99.90;;;;;;5091132;28;20211;-54
2024/01/30 02:35:35;;;;;;;18.17;12.35;;;7.40;99.90;;;;;;5091726;28;20529;-54
2024/01/30 02:38:01;;;;;;;17.83;11.82;;;7.40;99.90;;;;;;5091201;28;20170;-54
2024/01/30 02:40:26;;;;;;;17.60;11.63;;;7.40;99.90;;;;;;5091434;28;20173;-53
2024/01/30 02:42:52;;;;;;;16.52;11.70;;;7.40;99.90;;;;;;5091155;28;20176;-54
2024/01/30 02:45:18;;;;;;;18.92;12.13;;;7.40;99.90;;;;;;5091414;28;20523;-54
2024/01/30 02:47:43;;;;;;;15.45;11.40;;;7.40;99.90;;;;;;5095126;28;20533;-53
2024/01/30 02:50:09;;;;;;;17.17;12.30;;;7.40;99.90;;;;;;5095183;28;20253;-53
2024/01/30 02:52:35;;;;;;;20.08;12.25;;;7.40;99.90;;;;;;5095662;28;20169;-53
2024/01/30 02:55:01;;;;;;;21.38;13.18;;;7.40;99.90;;;;;;5095136;28;20176;-54
2024/01/30 02:57:28;;;;;;;16.58;11.77;;;7.40;99.90;;;;;;5094730;28;20582;-54
2024/01/30 02:59:54;;;;;;;18.27;12.18;;;7.40;99.90;;;;;;5095413;28;20178;-53
2024/01/30 03:02:19;;;;;;;16.23;11.40;;;7.40;99.90;;;;;;5095111;28;20165;-53
2024/01/30 03:04:45;;;;;;;19.65;12.05;;;7.40;99.90;;;;;;5095146;28;20170;-53
2024/01/30 03:07:11;;;;;;;16.13;11.63;;;7.40;99.90;;;;;;5094902;28;20180;-53
2024/01/30 03:09:37;;;;;;;17.95;11.95;;;7.40;99.90;;;;;;5095203;28;20203;-53
2024/01/30 03:12:03;;;;;;;19.08;12.23;;;7.40;99.90;;;;;;5095069;28;20181;-53
2024/01/30 03:14:30;;;;;;;15.93;11.35;;;7.40;99.90;;;;;;5094690;28;20158;-53
2024/01/30 03:16:56;;;;;;;16.15;12.13;;;7.40;99.90;;;;;;5094676;28;20204;-53
2024/01/30 03:19:22;;;;;;;17.83;12.02;;;7.40;99.90;;;;;;5094645;28;20576;-54
2024/01/30 03:21:47;;;;;;;16.58;11.98;;;7.40;99.90;;;;;;5094359;28;20668;-52
2024/01/30 03:24:13;;;;;;;14.88;11.50;;;7.40;99.90;;;;;;5094645;28;20161;-54
2024/01/30 03:26:38;;;;;;;19.30;12.50;;;7.40;99.90;;;;;;5094461;28;20218;-53
2024/01/30 03:29:04;;;;;;;17.90;11.43;;;7.40;99.90;;;;;;5094953;28;20215;-53
2024/01/30 03:31:29;;;;;;;19.38;11.48;;;7.40;99.90;;;;;;5094420;28;20212;-53
2024/01/30 03:33:55;;;;;;;22.67;12.48;;;7.40;99.90;;;;;;5094316;28;20161;-54
2024/01/30 03:36:20;;;;;;;24.60;11.95;;;7.40;99.90;;;;;;5094244;28;20180;-53
2024/01/30 03:38:46;;;;;;;16.10;11.60;;;7.40;99.90;;;;;;5094279;28;20169;-53
2024/01/30 03:41:11;;;;;;;15.80;10.57;;;7.40;99.90;;;;;;5094168;28;20174;-53
2024/01/30 03:43:37;;;;;;;16.52;11.30;;;7.30;99.90;;;;;;5094799;28;20219;-53
2024/01/30 03:46:03;;;;;;;17.10;11.40;;;7.30;99.90;;;;;;5094066;28;20162;-53
2024/01/30 03:48:29;;;;;;;18.08;10.95;;;7.30;99.90;;;;;;5093887;28;20248;-54
2024/01/30 03:50:54;;;;;;;15.25;9.77;;;7.30;99.90;;;;;;5093858;28;20299;-53
2024/01/30 03:53:20;;;;;;;14.30;9.68;;;7.30;99.90;;;;;;5094054;28;20165;-53
2024/01/30 03:55:46;;;;;;;17.05;10.45;;;7.40;99.90;;;;;;5093916;28;20517;-54
2024/01/30 03:58:11;;;;;;;15.07;10.90;;;7.30;99.90;;;;;;5092501;28;20213;-53
2024/01/30 04:00:37;;;;;;;16.80;11.40;;;7.30;99.90;;;;;;5094646;28;20177;-54
2024/01/30 04:03:03;;;;;;;21.02;10.98;;;7.30;99.90;;;;;;5094066;28;20176;-54
2024/01/30 04:05:28;;;;;;;17.05;11.05;;;7.30;99.90;;;;;;5093798;28;20165;-53
2024/01/30 04:07:54;;;;;;;15.77;11.13;;;7.30;99.90;;;;;;5093714;28;20621;-53
2024/01/30 04:10:19;;;;;;;15.07;11.05;;;7.30;99.90;;;;;;5093647;28;20208;-54
2024/01/30 04:12:45;;;;;;;15.95;11.70;;;7.30;99.90;;;;;;5093894;28;20173;-53
2024/01/30 04:15:11;;;;;;;15.63;10.90;;;7.30;99.90;;;;;;5093519;28;20165;-54
2024/01/30 04:17:36;;;;;;;19.83;11.82;;;7.30;99.90;;;;;;5094049;28;20165;-54
2024/01/30 04:20:02;;;;;;;17.13;10.60;;;7.30;99.90;;;;;;5093419;28;20222;-53
2024/01/30 04:22:28;;;;;;;16.38;11.20;;;7.30;99.90;;;;;;5093400;28;20162;-53
2024/01/30 04:24:53;;;;;;;20.02;10.75;;;7.30;99.90;;;;;;5093624;28;20177;-53
2024/01/30 04:27:19;;;;;;;15.18;11.00;;;7.30;99.90;;;;;;5093379;28;20173;-54
2024/01/30 04:29:44;;;;;;;16.08;10.23;;;7.30;99.90;;;;;;5093198;28;20301;-52
2024/01/30 04:32:10;;;;;;;16.88;10.95;;;7.30;99.90;;;;;;5093253;28;20215;-53
2024/01/30 04:34:36;;;;;;;14.70;11.13;;;7.30;99.90;;;;;;5093736;28;20181;-53
2024/01/30 04:37:02;;;;;;;14.57;10.48;;;7.30;99.90;;;;;;5093088;28;20201;-53
2024/01/30 04:39:28;;;;;;;15.93;10.60;;;7.30;99.90;;;;;;5093080;28;20184;-53
2024/01/30 04:41:54;;;;;;;16.58;10.68;;;7.30;99.90;;;;;;5092975;28;20640;-54
2024/01/30 04:44:19;;;;;;;20.60;10.73;;;7.30;99.90;;;;;;5093086;28;20717;-54
2024/01/30 04:46:45;;;;;;;20.50;11.18;;;7.20;99.90;;;;;;5092914;28;20165;-54
2024/01/30 04:49:11;;;;;;;16.55;10.90;;;7.30;99.90;;;;;;5092861;28;20175;-54
2024/01/30 04:51:36;;;;;;;15.82;9.95;;;7.30;99.90;;;;;;5093319;28;20659;-54
2024/01/30 04:54:02;;;;;;;19.60;10.65;;;7.20;99.90;;;;;;5092835;28;20524;-53
2024/01/30 04:56:27;;;;;;;15.85;9.73;;;7.20;99.90;;;;;;5092747;28;21130;-52
2024/01/30 04:58:53;;;;;;;16.58;9.95;;;7.20;99.90;;;;;;5092753;28;20161;-52
2024/01/30 05:01:19;;;;;;;14.73;9.73;;;7.20;99.90;;;;;;5092672;28;20181;-52
2024/01/30 05:03:44;;;;;;;15.20;9.40;;;7.30;99.90;;;;;;5092622;28;20255;-53
2024/01/30 05:06:10;;;;;;;18.30;9.82;;;7.30;99.90;;;;;;5092564;28;20179;-53
2024/01/30 05:08:38;;;;;;;11.55;8.98;;;7.20;99.90;;;;;;5092980;28;20169;-52
2024/01/30 05:11:05;;;;;;;14.82;9.50;;;7.30;99.90;;;;;;5092992;28;20280;-52
2024/01/30 05:13:31;;;;;;;15.38;9.45;;;7.30;99.90;;;;;;5092356;28;20161;-53
2024/01/30 05:15:57;;;;;;;12.50;9.00;;;7.30;99.90;;;;;;5092452;28;20173;-52
2024/01/30 05:18:23;;;;;;;16.35;9.10;;;7.30;99.90;;;;;;5092255;28;20645;-52
2024/01/30 05:20:50;;;;;;;18.20;9.75;;;7.30;99.90;;;;;;5092566;28;20689;-52
2024/01/30 05:23:16;;;;;;;14.00;8.93;;;7.30;99.90;;;;;;5092303;28;20180;-53
2024/01/30 05:25:41;;;;;;;11.50;8.10;;;7.30;99.90;;;;;;5092193;28;20244;-54
2024/01/30 05:28:07;;;;;;;16.05;8.95;;;7.30;99.90;;;;;;5092506;28;20169;-53
2024/01/30 05:30:32;;;;;;;12.82;8.10;;;7.30;99.90;;;;;;5092206;28;20548;-54
2024/01/30 05:32:58;;;;;;;12.60;8.77;;;7.30;99.90;;;;;;5091550;28;20172;-54
2024/01/30 05:35:23;;;;;;;12.43;9.02;;;7.30;99.90;;;;;;5091506;28;20175;-54
2024/01/30 05:37:50;;;;;;;14.43;9.02;;;7.30;99.90;;;;;;5091326;28;20185;-54
2024/01/30 05:40:16;;;;;;;13.35;8.48;;;7.20;99.90;;;;;;5091349;28;20184;-54
2024/01/30 05:42:42;;;;;;;12.30;8.50;;;7.30;99.90;;;;;;5091796;28;20162;-54
2024/01/30 05:45:08;;;;;;;13.90;8.20;;;7.30;99.90;;;;;;5092206;28;20240;-54
2024/01/30 05:47:34;;;;;;;11.88;8.35;;;7.20;99.90;;;;;;5092072;28;20260;-55
2024/01/30 05:50:00;;;;;;;12.93;8.07;;;7.30;99.90;;;;;;5091557;28;20205;-54
2024/01/30 05:52:25;;;;;;;14.93;7.80;;;7.30;99.90;;;;;;5091686;28;20166;-55
2024/01/30 05:54:51;;;;;;;12.05;7.70;;;7.30;99.90;;;;;;5091617;28;20260;-54
2024/01/30 05:57:17;;;;;;;11.60;8.35;;;7.30;99.90;;;;;;5091451;28;20568;-54
2024/01/30 05:59:43;;;;;;;9.52;7.50;;;7.30;99.90;;;;;;5091569;28;20169;-54
2024/01/30 06:02:10;;;;;;;12.93;9.05;;;7.30;99.90;;;;;;5091573;28;20173;-54
2024/01/30 06:04:36;;;;;;;11.75;8.10;;;7.20;99.90;;;;;;5092266;28;20173;-54
2024/01/30 06:07:01;;;;;;;15.70;8.18;;;7.20;99.90;;;;;;5091439;28;20520;-54
2024/01/30 06:09:28;;;;;;;13.48;7.72;;;7.20;99.90;;;;;;5091548;28;20201;-54
2024/01/30 06:11:54;;;;;;;12.35;8.57;;;7.30;99.90;;;;;;5091356;28;20636;-54
2024/01/30 06:14:19;;;;;;;13.57;8.43;;;7.30;99.90;;;;;;5091435;28;20230;-52
2024/01/30 06:16:45;;;;;;;15.85;8.35;;;7.30;99.90;;;;;;5091348;28;20173;-53
2024/01/30 06:19:10;;;;;;;18.00;9.32;;;7.20;99.90;;;;;;5091474;28;20185;-53
2024/01/30 06:21:38;;;;;;;12.18;7.53;;;7.20;99.90;;;;;;5091079;28;20230;-53
2024/01/30 06:24:04;;;;;;;17.10;8.02;;;7.30;99.90;;;;;;5091792;28;20153;-53
2024/01/30 06:26:29;;;;;;;12.70;8.43;;;7.30;99.90;;;;;;5091391;28;20524;-54
2024/01/30 06:28:55;;;;;;;15.93;9.15;;;7.30;99.90;;;;;;5091354;28;20174;-53
2024/01/30 06:31:21;;;;;;;13.70;8.02;;;7.30;99.90;;;;;;5091216;28;20213;-53
2024/01/30 06:33:49;;;;;;;12.95;8.75;;;7.30;99.90;;;;;;5091464;28;20173;-53
2024/01/30 06:36:15;;;;;;;17.63;9.60;;;7.30;99.90;;;;;;5091449;28;20503;-53
2024/01/30 06:38:41;;;;;;;11.45;8.38;;;7.30;99.90;;;;;;5091144;28;20180;-54
2024/01/30 06:41:06;;;;;;;13.50;8.60;;;7.30;99.90;;;;;;5091550;28;20560;-52
2024/01/30 06:43:32;;;;;;;11.65;7.80;;;7.30;99.90;;;;;;5091132;28;20165;-53
2024/01/30 06:45:57;;;;;;;16.33;8.35;;;7.30;99.90;;;;;;5091136;28;20229;-53
2024/01/30 06:48:23;;;;;;;15.77;8.07;;;7.40;99.90;;;;;;5091093;28;20165;-53
2024/01/30 06:50:49;;;;;;;9.73;7.25;;;7.40;99.90;;;;;;5090985;28;20560;-53
2024/01/30 06:53:15;;;;;;;16.75;8.23;;;7.40;99.90;;;;;;5091342;28;20162;-53
2024/01/30 06:55:40;;;;;;;16.60;8.20;;;7.30;99.90;;;;;;5091062;28;20181;-53
2024/01/30 06:58:06;;;;;;;11.13;7.88;;;7.30;99.90;;;;;;5091295;28;20224;-52
2024/01/30 07:00:32;;;;;;;17.52;8.60;;;7.40;99.90;;;;;;5090888;28;20242;-52
2024/01/30 07:02:57;;;;;;;12.98;9.05;;;7.30;99.90;;;;;;5089671;28;20162;-53
2024/01/30 07:05:23;;;;;;;12.50;8.35;;;7.30;99.90;;;;;;5090978;28;20226;-54
2024/01/30 07:07:48;;;;;;;16.58;9.05;;;7.30;99.90;;;;;;5089826;28;20203;-53
2024/01/30 07:10:14;;;;;;;10.88;8.63;;;7.40;99.90;;;;;;5090883;28;20205;-54
2024/01/30 07:12:40;;;;;;;17.20;9.30;;;7.30;99.90;;;;;;5090804;28;20197;-53
2024/01/30 07:15:08;;;;;;;14.65;9.55;;;7.40;99.90;;;;;;5091286;28;20244;-53
2024/01/30 07:17:34;;;;;;;14.40;9.13;;;7.40;99.90;;;;;;5091236;28;20162;-54
2024/01/30 07:20:00;;;;;;;14.07;9.27;;;7.40;99.90;;;;;;5090826;28;20211;-53
2024/01/30 07:22:25;;;;;;;19.05;9.57;;;7.40;99.90;;;;;;5090004;28;20178;-52
2024/01/30 07:24:51;;;;;;;17.67;9.07;;;7.40;99.90;;;;;;5089483;28;20220;-52
2024/01/30 07:27:17;;;;;;;11.23;8.75;;;7.40;99.90;;;;;;5089295;28;20161;-53
2024/01/30 07:29:43;;;;;;;14.88;8.57;;;7.40;99.90;;;;;;5090015;28;20208;-52
2024/01/30 07:32:09;;;;;;;13.30;8.70;;;7.40;99.90;;;;;;5091675;28;20178;-53
2024/01/30 07:34:36;;;;;;;13.57;8.90;;;7.40;99.90;;;;;;5094558;28;20161;-53
2024/01/30 07:37:01;;;;;;;13.18;9.48;;;7.40;99.90;;;;;;5092150;28;20184;-53
2024/01/30 07:39:28;;;;;;;14.95;9.70;;;7.40;99.90;;;;;;5093239;28;20170;-52
2024/01/30 07:41:53;;;;;;;17.90;8.90;;;7.40;99.90;;;;;;5093461;28;20180;-52
2024/01/30 07:44:20;;;;;;;16.80;9.40;;;7.40;99.90;;;;;;5101447;28;20188;-49
2024/01/30 07:46:45;;;;;;;15.93;9.13;;;7.40;99.90;;;;;;5091792;28;20655;-50
2024/01/30 07:49:11;;;;;;;12.48;8.68;;;7.50;99.90;;;;;;5091043;28;20252;-54
2024/01/30 07:51:36;;;;;;;16.35;9.10;;;7.50;99.90;;;;;;5092127;28;20172;-55
2024/01/30 07:54:02;;;;;;;11.63;8.65;;;7.50;99.90;;;;;;5091695;28;20173;-56
2024/01/30 07:56:27;;;;;;;16.42;8.90;;;7.40;99.90;;;;;;5091095;28;20216;-54
2024/01/30 07:58:53;;;;;;;14.52;9.05;;;7.50;99.90;;;;;;5091891;28;20173;-53
2024/01/30 08:01:19;;;;;;;13.75;9.38;;;7.50;99.90;;;;;;5091734;28;20170;-56
2024/01/30 08:03:44;;;;;;;18.50;9.13;;;7.50;99.90;;;;;;5092211;28;20189;-52
2024/01/30 08:06:10;;;;;;;15.82;9.73;;;7.50;99.90;;;;;;5091884;28;20165;-53
2024/01/30 08:08:37;;;;;;;12.35;8.80;;;7.50;99.90;;;;;;5092364;28;20200;-54
2024/01/30 08:11:03;;;;;;;14.38;9.13;;;7.50;99.90;;;;;;5091434;28;20262;-54
2024/01/30 08:13:29;;;;;;;16.98;8.65;;;7.60;99.90;;;;;;5091063;28;20169;-48
2024/01/30 08:15:54;;;;;;;13.95;8.88;;;7.60;99.90;;;;;;5091289;28;20181;-52
2024/01/30 08:18:20;;;;;;;12.73;8.35;;;7.70;99.90;;;;;;5091141;28;20197;-56
2024/01/30 08:20:45;;;;;;;13.52;8.95;;;7.70;99.90;;;;;;5090884;28;20220;-57
2024/01/30 08:23:11;;;;;;;11.45;8.20;;;7.70;99.90;;;;;;5091104;28;20205;-56
2024/01/30 08:25:36;;;;;;;11.82;8.32;;;7.80;99.90;;;;;;5092120;28;20173;-55
2024/01/30 08:28:02;;;;;;;15.88;9.38;;;7.80;99.90;;;;;;5092220;28;20527;-55
2024/01/30 08:30:28;;;;;;;11.07;8.90;;;7.90;99.90;;;;;;5091758;28;20559;-56
2024/01/30 08:32:53;;;;;;;11.25;8.27;;;7.90;99.90;;;;;;5091452;28;20161;-55
2024/01/30 08:35:19;;;;;;;16.13;8.20;;;8.00;99.90;;;;;;5091293;28;20165;-55
2024/01/30 08:37:44;;;;;;;12.90;8.32;;;8.00;99.90;;;;;;5091717;28;20169;-55
2024/01/30 08:40:10;;;;;;;12.70;7.63;;;8.00;99.90;;;;;;5091621;28;20595;-55
2024/01/30 08:42:36;;;;;;;10.57;7.72;;;8.00;99.90;;;;;;5091778;28;20171;-55
2024/01/30 08:45:02;;;;;;;14.68;8.20;;;8.10;99.90;;;;;;5089529;28;20173;-54
2024/01/30 08:47:27;;;;;;;11.00;7.93;;;8.10;99.90;;;;;;5091371;28;20173;-56
2024/01/30 08:49:53;;;;;;;15.00;9.00;;;8.20;99.90;;;;;;5090974;28;20209;-55
2024/01/30 08:52:18;;;;;;;16.80;8.88;;;8.20;99.90;;;;;;5090975;28;20166;-55
2024/01/30 08:54:44;;;;;;;12.85;8.60;;;8.30;99.90;;;;;;5090872;28;20161;-54
2024/01/30 08:57:10;;;;;;;11.40;8.73;;;8.20;99.90;;;;;;5090981;28;20220;-53
2024/01/30 08:59:35;;;;;;;13.43;8.88;;;8.20;99.90;;;;;;5091390;28;20196;-55
2024/01/30 09:02:01;;;;;;;11.80;7.85;;;8.20;99.90;;;;;;5090933;28;20172;-55
2024/01/30 09:04:26;;;;;;;17.80;9.43;;;8.30;99.90;;;;;;5090936;28;20327;-55
2024/01/30 09:06:52;;;;;;;13.10;8.75;;;8.30;99.90;;;;;;5090895;28;20169;-55
2024/01/30 09:09:17;;;;;;;10.93;8.00;;;8.40;99.90;;;;;;5090912;28;20192;-56
2024/01/30 09:11:43;;;;;;;13.15;8.13;;;8.50;99.90;;;;;;5091042;28;20173;-55
2024/01/30 09:14:09;;;;;;;12.30;8.38;;;8.50;99.90;;;;;;5091047;28;20532;-55
2024/01/30 09:16:35;;;;;;;10.02;8.05;;;8.60;99.90;;;;;;5090888;28;20173;-56
2024/01/30 09:19:00;;;;;;;12.18;8.23;;;8.60;99.90;;;;;;5090573;28;20164;-55
2024/01/30 09:21:26;;;;;;;12.02;7.85;;;8.60;99.90;;;;;;5090874;28;20165;-55
2024/01/30 09:23:54;;;;;;;15.15;8.52;;;8.70;99.90;;;;;;5090840;28;20628;-55
2024/01/30 09:26:20;;;;;;;12.77;7.50;;;8.80;99.90;;;;;;5090630;28;20188;-55
2024/01/30 09:28:46;;;;;;;12.68;8.07;;;8.80;99.90;;;;;;5090698;28;20501;-55
2024/01/30 09:31:12;;;;;;;12.23;7.65;;;8.90;99.90;;;;;;5090476;28;20565;-55
2024/01/30 09:33:38;;;;;;;11.88;9.00;;;8.90;99.90;;;;;;5090670;28;20660;-56
2024/01/30 09:36:05;;;;;;;13.00;8.13;;;8.90;99.90;;;;;;5091199;28;20181;-55
2024/01/30 09:38:31;;;;;;;11.50;8.77;;;8.90;99.90;;;;;;5089129;28;20169;-56
2024/01/30 09:41:01;;;;;;;13.93;8.98;;;8.90;99.90;;;;;;5090882;28;20185;-55
2024/01/30 09:43:33;;;;;;;10.93;8.05;;;9.00;99.90;;;;;;5090272;28;20215;-55
2024/01/30 09:45:59;;;;;;;28.80;9.40;;;9.00;99.90;;;;;;5090320;28;20158;-56
2024/01/30 09:48:26;;;;;;;17.63;11.43;;;8.90;99.90;;;;;;5089846;28;20700;-55
2024/01/30 09:50:53;;;;;;;27.67;17.02;;;9.00;99.90;;;;;;5089894;28;20296;-55
2024/01/30 09:53:20;;;;;;;16.15;10.95;;;9.00;99.90;;;;;;5089172;28;20177;-52
2024/01/30 09:55:46;;;;;;;24.65;16.00;;;9.00;99.90;;;;;;5088906;28;20190;-55
2024/01/30 09:58:12;;;;;;;19.70;13.98;;;9.10;99.90;;;;;;5089879;28;20240;-55
2024/01/30 10:00:38;;;;;;;12.30;9.07;;;9.10;99.90;;;;;;5090482;28;20177;-56
2024/01/30 10:03:04;;;;;;;20.55;15.02;;;9.10;99.90;;;;;;5090691;28;20226;-55
2024/01/30 10:05:33;;;;;;;18.30;9.88;;;9.10;99.90;;;;;;5090186;28;20165;-55
2024/01/30 10:07:59;;;;;;;12.50;9.95;;;9.20;99.90;;;;;;5090221;28;20252;-55
2024/01/30 10:10:25;;;;;;;34.22;26.20;;;9.20;99.90;;;;;;5089971;28;20287;-56
2024/01/30 10:12:50;;;;;;;17.52;11.27;;;9.30;99.90;;;;;;5090190;28;20168;-56
2024/01/30 10:15:18;;;;;;;22.30;13.85;;;9.30;99.90;;;;;;5090015;28;20176;-54
2024/01/30 10:17:45;;;;;;;14.43;10.18;;;9.30;99.90;;;;;;5090091;28;20264;-55
2024/01/30 10:20:11;;;;;;;11.93;8.80;;;9.40;99.90;;;;;;5090252;28;20192;-55
2024/01/30 10:22:37;;;;;;;12.27;8.73;;;9.40;99.90;;;;;;5090206;28;20205;-54
2024/01/30 10:25:02;;;;;;;14.95;9.43;;;9.40;99.90;;;;;;5090564;28;20177;-55
2024/01/30 10:27:29;;;;;;;14.02;9.75;;;9.50;99.90;;;;;;5089789;28;20169;-55
2024/01/30 10:29:55;;;;;;;11.82;8.75;;;9.50;99.90;;;;;;5089771;28;20296;-55
2024/01/30 10:32:21;;;;;;;14.20;9.63;;;9.50;99.90;;;;;;5089644;28;20169;-55
2024/01/30 10:34:47;;;;;;;15.02;8.50;;;9.60;99.90;;;;;;5089874;28;20169;-56
2024/01/30 10:37:15;;;;;;;14.25;8.68;;;9.70;99.90;;;;;;5089794;28;20519;-55
2024/01/30 10:39:42;;;;;;;14.98;9.30;;;9.70;99.90;;;;;;5089416;28;20581;-55
2024/01/30 10:42:16;;;;;;;13.32;10.18;;;9.80;99.90;;;;;;5089537;28;20176;-55
2024/01/30 10:45:05;;;;;;;23.33;11.32;;;9.90;99.90;;;;;;5088385;28;20177;-55
2024/01/30 10:47:33;;;;;;;17.88;11.00;;;10.00;99.90;;;;;;5089635;28;20177;-53
2024/01/30 10:50:00;;;;;;;15.77;11.00;;;10.10;99.90;;;;;;5089504;28;20232;-53
2024/01/30 10:52:26;;;;;;;12.18;9.40;;;10.20;99.90;;;;;;5089508;28;20184;-53
2024/01/30 10:54:52;;;;;;;24.65;13.55;;;10.20;99.90;;;;;;5089585;28;20505;-53
2024/01/30 10:57:18;;;;;;;16.10;11.95;;;10.20;99.90;;;;;;5088986;28;20219;-53
2024/01/30 10:59:45;;;;;;;12.82;10.75;;;10.30;99.90;;;;;;5089397;28;20169;-53
2024/01/30 11:02:11;;;;;;;15.88;9.82;;;10.30;99.90;;;;;;5089186;28;20166;-53
2024/01/30 11:04:37;;;;;;;15.00;9.63;;;10.30;99.90;;;;;;5089079;28;20363;-53
2024/01/30 11:07:14;;;;;;;14.95;9.07;;;10.40;99.90;;;;;;5090836;28;20175;-53
2024/01/30 11:09:41;;;;;;;16.73;9.60;;;10.50;99.90;;;;;;5092995;28;20214;-53
2024/01/30 11:12:12;;;;;;;12.40;9.07;;;10.50;99.90;;;;;;5093289;28;20169;-53
2024/01/30 11:14:40;;;;;;;12.98;8.63;;;10.60;99.90;;;;;;5092717;28;20181;-53
2024/01/30 11:17:05;;;;;;;20.40;9.75;;;10.60;99.90;;;;;;5093547;28;20218;-52
2024/01/30 11:19:32;;;;;;;10.43;8.60;;;10.70;99.90;;;;;;5093126;28;20181;-52
2024/01/30 11:21:58;;;;;;;11.55;8.90;;;10.70;99.90;;;;;;5092935;28;20218;-53
2024/01/30 11:24:24;;;;;;;14.80;8.75;;;10.80;99.90;;;;;;5092503;28;20173;-53
2024/01/30 11:26:55;;;;;;;12.20;8.27;;;10.80;99.90;;;;;;5092916;28;20563;-52
2024/01/30 11:29:27;;;;;;;13.30;8.30;;;11.00;99.90;;;;;;5092835;28;20625;-53
2024/01/30 11:31:54;;;;;;;14.23;9.15;;;11.00;99.90;;;;;;5093006;28;20191;-52
2024/01/30 11:34:21;;;;;;;14.23;7.97;;;11.10;99.90;;;;;;5092720;28;20700;-52
2024/01/30 11:37:11;;;;;;;13.90;7.70;;;11.20;99.90;;;;;;5093150;28;20181;-53
2024/01/30 11:39:37;;;;;;;12.80;8.55;;;11.30;99.90;;;;;;5092091;28;20181;-53
2024/01/30 11:42:05;;;;;;;16.05;9.20;;;11.40;99.90;;;;;;5092818;28;20272;-52
2024/01/30 11:44:30;;;;;;;18.17;8.70;;;11.40;99.90;;;;;;5092317;28;20813;-52
2024/01/30 11:46:56;;;;;;;12.02;6.80;;;11.40;99.90;;;;;;5092483;28;20181;-53
2024/01/30 11:49:23;;;;;;;14.50;6.72;;;11.40;99.90;;;;;;5092921;28;20593;-53
2024/01/30 11:51:49;;;;;;;12.25;5.88;;;11.50;99.90;;;;;;5092465;28;20169;-53
2024/01/30 11:54:16;;;;;;;10.95;6.88;;;11.50;99.90;;;;;;5092937;28;20188;-53
2024/01/30 11:56:42;;;;;;;12.57;6.45;;;11.50;99.90;;;;;;5092377;28;20248;-52
2024/01/30 11:59:07;;;;;;;12.43;5.53;;;11.50;99.90;;;;;;5092351;28;20226;-53
2024/01/30 12:01:33;;;;;;;16.33;6.43;;;11.60;99.90;;;;;;5092759;28;20169;-54
2024/01/30 12:03:59;;;;;;;10.55;5.07;;;11.60;99.90;;;;;;5092444;28;20166;-53
2024/01/30 12:06:25;;;;;;;9.77;5.30;;;11.60;99.90;;;;;;5092369;28;20169;-53
2024/01/30 12:09:04;;;;;;;11.73;5.20;;;11.70;99.90;;;;;;5090709;28;20169;-53
2024/01/30 12:11:30;;;;;;;11.52;5.10;;;11.70;99.90;;;;;;5091700;28;20676;-52
2024/01/30 12:13:56;;;;;;;12.90;5.97;;;11.70;99.90;;;;;;5091702;28;20234;-52
2024/01/30 12:16:21;;;;;;;9.52;5.07;;;11.70;99.90;;;;;;5091534;28;20184;-52
2024/01/30 12:18:48;;;;;;;8.23;4.10;;;11.70;99.90;;;;;;5090423;28;20173;-53
2024/01/30 12:21:16;;;;;;;9.73;5.28;;;11.60;99.90;;;;;;5091690;28;20165;-53
2024/01/30 12:23:42;;;;;;;11.57;5.55;;;11.60;99.90;;;;;;5091588;28;20188;-52
2024/01/30 12:26:07;;;;;;;11.10;5.68;;;11.50;99.90;;;;;;5091948;28;20165;-53
2024/01/30 12:28:33;;;;;;;11.95;6.22;;;11.50;99.90;;;;;;5092340;28;20177;-53
2024/01/30 12:31:05;;;;;;;9.00;5.30;;;11.50;99.90;;;;;;5091804;28;20235;-52
2024/01/30 12:33:31;;;;;;;7.55;5.22;;;11.50;99.90;;;;;;5092388;28;20158;-53
2024/01/30 12:36:01;;;;;;;7.80;5.35;;;11.50;99.90;;;;;;5091878;28;20169;-53